Time;durP1;ratioP1;P1;durP2;ratioP2;P2;SDS_P1;SDS_P2;PMS_P1;PMS_P2;Temp;Humidity;BMP_temperature;BMP_pressure;BME280_temperature;BME280_humidity;BME280_pressure;Samples;Min_cycle;Max_cycle;Signal;HPM_P1;HPM_P2
2024/03/17 00:01:20;;;;;;;3.77;2.80;;;5.80;78.50;;;5.09;77.22;98650.09;5060076;28;20552;-71
2024/03/17 00:03:46;;;;;;;4.63;2.77;;;5.70;78.30;;;4.93;77.67;98660.75;5061643;28;20476;-70
2024/03/17 00:06:14;;;;;;;6.83;3.30;;;5.40;78.60;;;4.88;78.44;98671.97;5053587;28;20990;-71
2024/03/17 00:08:41;;;;;;;4.03;3.03;;;5.30;79.30;;;4.80;79.11;98662.06;5057147;28;20492;-73
2024/03/17 00:11:09;;;;;;;3.07;2.77;;;5.20;79.60;;;4.60;80.62;98658.81;5057708;28;20521;-72
2024/03/17 00:13:35;;;;;;;5.17;3.00;;;5.10;80.00;;;4.49;81.33;98641.22;5057490;28;20472;-71
2024/03/17 00:16:03;;;;;;;4.17;3.00;;;5.00;80.40;;;4.56;81.08;98670.84;5060866;28;20464;-72
2024/03/17 00:18:30;;;;;;;3.77;2.73;;;4.90;80.80;;;4.53;81.45;98676.50;5059073;28;20473;-73
2024/03/17 00:20:57;;;;;;;3.60;2.63;;;4.80;81.00;;;4.57;81.70;98671.66;5053815;28;21013;-70
2024/03/17 00:23:23;;;;;;;4.20;2.63;;;4.90;81.60;;;4.59;81.53;98675.00;5057292;28;20465;-72
2024/03/17 00:25:52;;;;;;;2.90;2.60;;;4.90;81.60;;;4.67;81.00;98657.16;5058285;28;20525;-74
2024/03/17 00:28:20;;;;;;;5.97;2.73;;;5.00;81.60;;;4.76;79.96;98670.56;5057915;28;20488;-70
2024/03/17 00:30:48;;;;;;;4.10;2.50;;;5.10;81.10;;;4.77;80.18;98678.44;5056082;28;20472;-74
2024/03/17 00:33:14;;;;;;;3.10;2.57;;;5.10;81.20;;;4.73;80.04;98673.59;5060541;28;20883;-73
2024/03/17 00:35:41;;;;;;;3.20;2.77;;;5.10;81.00;;;4.71;81.62;98672.91;5055382;28;20559;-71
2024/03/17 00:38:10;;;;;;;3.43;2.60;;;5.10;81.30;;;4.67;80.85;98667.84;5057430;28;20845;-71
2024/03/17 00:40:37;;;;;;;4.87;2.43;;;5.10;81.50;;;4.62;81.67;98672.00;5060462;28;20472;-71
2024/03/17 00:43:05;;;;;;;7.87;2.60;;;5.10;81.50;;;4.24;83.44;98627.72;5076091;28;20912;-71
2024/03/17 00:45:33;;;;;;;3.70;2.90;;;5.10;82.00;;;4.49;83.19;98676.00;5048921;28;21248;-72
2024/03/17 00:47:59;;;;;;;3.37;2.53;;;5.10;82.60;;;4.41;82.94;98673.25;5056907;28;20508;-71
2024/03/17 00:50:26;;;;;;;2.43;2.10;;;5.20;82.30;;;4.46;82.68;98675.47;5053136;28;20491;-71
2024/03/17 00:52:54;;;;;;;5.27;3.67;;;5.30;82.00;;;4.57;82.13;98677.03;5054860;28;20953;-71
2024/03/17 00:55:21;;;;;;;3.50;2.93;;;5.30;81.50;;;4.21;82.11;98619.16;5062067;28;21271;-71
2024/03/17 00:57:49;;;;;;;4.37;2.40;;;5.40;81.40;;;4.94;80.87;98689.22;5047974;28;20469;-71
2024/03/17 01:00:19;;;;;;;4.87;3.00;;;5.50;81.20;;;5.08;80.30;98677.03;5057558;28;20483;-71
2024/03/17 01:02:46;;;;;;;4.13;3.60;;;5.60;81.20;;;5.23;80.67;98672.69;5059756;28;20569;-71
2024/03/17 01:05:13;;;;;;;3.90;2.80;;;5.60;81.40;;;5.28;79.63;98674.91;5071072;28;20493;-70
2024/03/17 01:07:39;;;;;;;2.83;2.60;;;5.70;81.30;;;5.37;79.80;98689.97;5056558;28;20847;-70
2024/03/17 01:10:08;;;;;;;3.33;2.73;;;5.70;81.30;;;5.34;79.04;98663.50;5061693;28;20468;-71
2024/03/17 01:12:35;;;;;;;3.17;2.87;;;5.80;81.30;;;5.24;79.54;98657.47;5049830;28;20487;-70
2024/03/17 01:15:05;;;;;;;3.87;2.83;;;5.80;81.20;;;5.33;79.45;98650.28;5060922;28;20496;-70
2024/03/17 01:17:33;;;;;;;3.57;2.77;;;5.80;81.10;;;5.50;78.68;98665.38;5061876;28;20456;-70
2024/03/17 01:20:02;;;;;;;3.30;2.33;;;5.80;81.00;;;5.66;77.65;98664.50;5077043;28;20473;-70
2024/03/17 01:22:29;;;;;;;4.13;3.10;;;6.00;80.80;;;5.70;76.94;98665.03;5059033;28;20487;-72
2024/03/17 01:24:56;;;;;;;3.77;3.10;;;6.00;80.10;;;5.62;76.67;98654.31;5061481;28;20844;-72
2024/03/17 01:27:22;;;;;;;5.93;3.30;;;6.10;80.10;;;5.39;77.21;98636.22;5055309;28;20477;-73
2024/03/17 01:29:50;;;;;;;3.43;3.00;;;6.00;80.00;;;5.56;77.72;98669.22;5062158;28;20527;-73
2024/03/17 01:32:16;;;;;;;3.63;3.20;;;6.00;80.20;;;5.60;77.48;98640.22;5059279;28;20461;-70
2024/03/17 01:34:45;;;;;;;3.10;2.50;;;6.10;80.50;;;5.32;77.18;98585.13;5056976;28;20473;-71
2024/03/17 01:37:12;;;;;;;5.00;3.80;;;6.10;80.30;;;5.76;77.35;98648.28;5060407;28;20475;-70
2024/03/17 01:39:39;;;;;;;8.57;4.47;;;6.10;80.30;;;5.81;77.05;98653.97;5061705;28;20472;-70
2024/03/17 01:42:07;;;;;;;9.13;4.17;;;6.20;80.20;;;5.85;77.28;98643.75;5059977;28;20906;-72
2024/03/17 01:44:33;;;;;;;7.37;4.37;;;6.20;80.20;;;5.89;77.24;98639.72;5075002;28;20485;-70
2024/03/17 01:47:03;;;;;;;6.97;4.60;;;6.30;80.30;;;5.93;76.73;98638.34;5063493;28;20485;-70
2024/03/17 01:49:30;;;;;;;4.57;4.10;;;6.30;80.00;;;5.76;76.79;98621.47;5060037;28;20824;-71
2024/03/17 01:51:58;;;;;;;3.73;3.40;;;6.30;79.90;;;5.81;77.34;98626.28;5059467;28;20501;-71
2024/03/17 01:54:25;;;;;;;4.40;3.63;;;6.30;80.40;;;5.45;78.04;98573.06;5062675;28;20557;-71
2024/03/17 01:56:53;;;;;;;4.67;3.20;;;6.20;80.10;;;5.64;78.70;98628.19;5060168;28;20604;-70
2024/03/17 01:59:19;;;;;;;5.47;3.70;;;6.10;80.40;;;5.66;79.27;98629.66;5062660;28;20491;-71
2024/03/17 02:01:47;;;;;;;4.47;3.30;;;6.00;80.80;;;5.70;79.16;98626.66;5044352;28;20555;-70
2024/03/17 02:04:13;;;;;;;5.70;4.10;;;6.10;80.90;;;5.65;79.89;98614.59;5061800;28;20481;-71
2024/03/17 02:06:41;;;;;;;4.13;3.73;;;6.10;81.30;;;5.62;80.06;98620.28;5060131;28;20609;-71
2024/03/17 02:09:09;;;;;;;4.50;3.53;;;6.10;81.20;;;5.66;80.64;98621.63;5059461;28;20473;-70
2024/03/17 02:11:37;;;;;;;5.30;3.33;;;6.10;81.70;;;5.62;81.10;98612.25;5059124;28;20513;-71
2024/03/17 02:14:03;;;;;;;10.33;4.17;;;6.10;81.80;;;5.57;81.28;98606.56;5060625;28;20489;-70
2024/03/17 02:16:31;;;;;;;6.73;4.17;;;6.00;81.70;;;5.52;81.26;98607.06;5057716;28;20481;-70
2024/03/17 02:18:58;;;;;;;4.77;3.33;;;6.00;81.80;;;5.39;81.76;98602.22;5055942;28;20503;-73
2024/03/17 02:21:27;;;;;;;5.30;4.27;;;5.90;82.20;;;5.61;81.94;98605.22;5055784;28;20984;-72
2024/03/17 02:23:56;;;;;;;4.30;3.80;;;6.00;82.70;;;5.57;81.48;98611.06;5053597;28;20576;-72
2024/03/17 02:26:24;;;;;;;7.53;4.00;;;6.00;82.50;;;5.55;81.67;98605.91;5063481;28;21051;-71
2024/03/17 02:28:50;;;;;;;6.53;3.77;;;5.90;82.50;;;5.23;82.41;98570.03;5061483;28;20547;-71
2024/03/17 02:31:18;;;;;;;5.43;4.40;;;5.80;82.50;;;5.12;82.75;98584.59;5062254;28;20473;-71
2024/03/17 02:33:45;;;;;;;6.10;3.57;;;5.70;82.70;;;4.97;83.49;98584.44;5047112;28;20484;-70
2024/03/17 02:36:14;;;;;;;7.73;3.90;;;5.50;82.90;;;4.85;84.61;98609.84;5060915;28;20478;-71
2024/03/17 02:41:29;;;;;;;4.77;3.23;;;5.20;83.80;;;4.63;86.28;98598.78;5059305;28;20484;-71
2024/03/17 02:43:56;;;;;;;4.90;3.87;;;5.10;84.80;;;4.59;86.97;98597.41;5056764;28;20468;-70
2024/03/17 02:46:24;;;;;;;7.00;4.40;;;5.10;85.20;;;4.37;88.58;98608.53;5058166;28;20538;-71
2024/03/17 02:48:53;;;;;;;5.70;3.20;;;5.00;85.70;;;4.28;89.57;98600.63;5058351;28;20463;-70
2024/03/17 02:51:24;;;;;;;5.00;3.53;;;4.90;86.40;;;4.11;89.54;98608.56;5062625;28;20537;-72
2024/03/17 02:53:52;;;;;;;5.87;3.23;;;4.80;86.90;;;4.01;90.08;98603.34;5059539;28;20473;-72
2024/03/17 02:56:19;;;;;;;5.40;3.20;;;4.70;87.40;;;4.01;89.92;98603.34;5057483;28;20477;-71
2024/03/17 02:58:51;;;;;;;4.03;3.07;;;4.60;87.90;;;4.06;90.39;98600.19;5058806;28;20480;-73
2024/03/17 03:01:19;;;;;;;4.30;3.63;;;4.70;88.30;;;4.01;90.85;98606.03;5057631;28;21237;-72
2024/03/17 03:03:47;;;;;;;4.00;2.57;;;4.60;88.40;;;4.00;90.60;98603.50;5060290;28;20545;-70
2024/03/17 03:06:19;;;;;;;3.10;2.80;;;4.60;88.50;;;3.90;90.92;98590.25;5059254;28;20492;-72
2024/03/17 03:08:48;;;;;;;3.90;3.50;;;4.60;88.90;;;3.92;91.25;98604.28;5060638;28;20479;-70
2024/03/17 03:11:17;;;;;;;3.73;3.20;;;4.60;89.10;;;3.75;91.79;98598.84;5048898;28;20488;-71
2024/03/17 03:13:47;;;;;;;4.87;2.93;;;4.50;89.30;;;3.78;93.33;98608.41;5055805;28;20919;-72
2024/03/17 03:16:15;;;;;;;4.77;3.13;;;4.50;90.20;;;3.94;92.38;98615.66;5060226;28;20477;-71
2024/03/17 03:18:44;;;;;;;4.53;2.97;;;4.50;90.60;;;3.90;93.23;98615.16;5057627;28;20479;-70
2024/03/17 03:21:13;;;;;;;3.90;3.60;;;4.60;90.60;;;3.82;94.02;98601.72;5059697;28;20495;-73
2024/03/17 03:23:40;;;;;;;6.20;3.63;;;4.60;90.80;;;3.98;93.85;98611.69;5053197;28;21103;-72
2024/03/17 03:26:09;;;;;;;4.80;4.07;;;4.60;90.90;;;3.86;93.62;98600.41;5057551;28;20894;-71
2024/03/17 03:28:38;;;;;;;5.27;4.43;;;4.60;90.80;;;3.58;94.15;98560.50;5057691;28;20970;-72
2024/03/17 03:31:07;;;;;;;4.50;4.10;;;4.60;90.80;;;4.08;93.73;98622.28;5059574;28;21012;-71
2024/03/17 03:33:34;;;;;;;4.70;4.10;;;4.70;91.10;;;3.92;93.83;98598.94;5057418;28;20477;-71
2024/03/17 03:36:10;;;;;;;3.90;3.60;;;4.70;90.80;;;4.03;94.24;98617.41;5056638;28;20557;-71
2024/03/17 03:38:37;;;;;;;5.13;3.63;;;4.70;91.00;;;3.97;93.89;98607.34;5056236;28;20499;-71
2024/03/17 03:41:09;;;;;;;6.87;3.90;;;4.70;91.10;;;4.04;94.28;98615.56;5058120;28;20472;-71
2024/03/17 03:43:37;;;;;;;12.20;4.20;;;4.70;91.30;;;4.04;94.71;98620.91;5056673;28;20900;-72
2024/03/17 03:46:07;;;;;;;8.27;4.80;;;4.70;91.40;;;3.74;95.96;98596.34;5054689;28;21001;-71
2024/03/17 03:48:35;;;;;;;5.20;4.40;;;4.70;91.50;;;3.87;96.66;98618.16;5056354;28;20470;-71
2024/03/17 03:51:07;;;;;;;6.40;4.40;;;4.80;92.00;;;3.78;97.69;98598.53;5060418;28;20524;-71
2024/03/17 03:53:35;;;;;;;6.63;5.20;;;4.80;92.10;;;3.96;97.50;98616.38;5058748;28;20480;-71
2024/03/17 03:56:07;;;;;;;7.83;5.10;;;4.80;92.30;;;3.90;97.96;98620.50;5059547;28;20510;-72
2024/03/17 03:58:35;;;;;;;5.40;4.90;;;4.80;92.20;;;3.86;97.43;98612.94;5060537;28;20465;-70
2024/03/17 04:01:06;;;;;;;7.13;4.10;;;4.80;92.00;;;3.87;98.09;98612.81;5053522;28;20452;-69
2024/03/17 04:03:35;;;;;;;6.23;4.57;;;4.80;92.10;;;3.97;97.77;98618.03;5054647;28;20482;-69
2024/03/17 04:06:07;;;;;;;5.53;4.53;;;4.80;92.30;;;3.95;97.31;98620.88;5075198;28;21017;-70
2024/03/17 04:08:35;;;;;;;5.07;4.57;;;4.90;92.20;;;4.16;97.01;98618.81;5057779;28;20891;-70
2024/03/17 04:11:03;;;;;;;6.50;4.53;;;5.00;92.20;;;4.12;96.84;98615.59;5055526;28;20484;-70
2024/03/17 04:13:31;;;;;;;6.27;4.80;;;5.00;92.00;;;4.14;97.35;98616.28;5064319;28;20484;-70
2024/03/17 04:15:59;;;;;;;5.07;4.57;;;5.00;92.20;;;4.22;97.00;98610.97;5057975;28;20876;-70
2024/03/17 04:18:30;;;;;;;6.53;5.13;;;5.10;92.00;;;4.20;96.39;98604.09;5057959;28;20483;-71
2024/03/17 04:20:58;;;;;;;6.10;4.57;;;5.10;91.70;;;4.25;96.07;98612.50;5076518;28;20461;-71
2024/03/17 04:23:25;;;;;;;6.53;5.00;;;5.10;91.60;;;4.21;96.77;98606.63;5055599;28;20491;-71
2024/03/17 04:25:54;;;;;;;6.50;5.10;;;5.20;91.70;;;4.31;96.77;98611.84;5062994;28;20491;-70
2024/03/17 04:28:21;;;;;;;5.50;5.00;;;5.20;91.50;;;4.20;96.78;98588.91;5058232;28;20465;-71
2024/03/17 04:30:48;;;;;;;9.77;5.30;;;5.10;91.40;;;4.16;95.79;98600.09;5052227;28;20480;-71
2024/03/17 04:33:16;;;;;;;8.07;5.80;;;5.20;91.30;;;4.07;96.78;98599.19;5056704;28;20471;-70
2024/03/17 04:35:45;;;;;;;5.83;4.73;;;5.10;91.40;;;4.16;97.85;98616.94;5051850;28;20519;-70
2024/03/17 04:38:14;;;;;;;6.20;5.23;;;5.10;91.60;;;4.03;96.73;98584.47;5041855;28;20476;-71
2024/03/17 04:40:42;;;;;;;5.73;5.07;;;5.10;91.80;;;4.24;96.63;98603.63;5061244;28;20469;-70
2024/03/17 04:43:09;;;;;;;8.50;5.33;;;5.10;91.80;;;4.30;96.44;98620.03;5051417;28;20481;-71
2024/03/17 04:45:37;;;;;;;7.83;6.20;;;5.20;91.60;;;4.31;96.16;98621.69;5060310;28;21472;-70
2024/03/17 04:48:08;;;;;;;6.63;5.27;;;5.20;91.50;;;4.46;95.93;98622.78;5064831;28;20972;-70
2024/03/17 04:50:37;;;;;;;7.17;5.33;;;5.20;91.70;;;4.48;96.00;98609.25;5058730;28;20484;-70
2024/03/17 04:53:06;;;;;;;9.87;5.47;;;5.30;91.40;;;4.49;95.32;98611.78;5054839;28;20484;-70
2024/03/17 04:55:33;;;;;;;7.83;5.30;;;5.30;91.50;;;4.38;96.31;98620.06;5056972;28;20473;-70
2024/03/17 04:58:00;;;;;;;7.23;4.90;;;5.20;91.30;;;4.19;96.69;98622.00;5058975;28;20503;-70
2024/03/17 05:00:28;;;;;;;6.13;5.43;;;5.20;91.30;;;4.24;97.03;98617.00;5062260;28;20495;-70
2024/03/17 05:02:55;;;;;;;7.10;5.47;;;5.10;91.70;;;4.20;97.75;98612.13;5058823;28;20480;-70
2024/03/17 05:05:23;;;;;;;6.43;5.70;;;5.10;91.70;;;4.37;96.62;98607.69;5061623;28;20828;-69
2024/03/17 05:07:51;;;;;;;7.67;5.80;;;5.10;91.90;;;4.37;95.97;98607.69;5060537;28;20479;-70
2024/03/17 05:10:19;;;;;;;6.33;5.30;;;5.20;91.90;;;4.35;96.58;98615.88;5076150;28;20541;-71
2024/03/17 05:12:47;;;;;;;7.40;5.80;;;5.10;91.90;;;4.32;96.11;98610.00;5073125;28;21036;-71
2024/03/17 05:15:15;;;;;;;7.70;5.67;;;5.20;91.80;;;4.47;96.07;98629.78;5061613;28;20892;-69
2024/03/17 05:17:42;;;;;;;9.37;5.87;;;5.20;92.00;;;4.31;96.73;98606.50;5056728;28;21028;-71
2024/03/17 05:20:13;;;;;;;7.40;6.27;;;5.10;91.90;;;4.53;96.57;98625.66;5053146;28;20858;-70
2024/03/17 05:22:40;;;;;;;8.50;7.07;;;5.10;92.50;;;4.41;95.66;98621.59;5075896;28;20633;-71
2024/03/17 05:25:08;;;;;;;9.20;7.27;;;5.20;92.10;;;4.21;97.51;98609.31;5060251;28;21257;-70
2024/03/17 05:27:38;;;;;;;7.50;6.70;;;5.20;92.20;;;4.27;98.70;98621.22;5061753;28;21410;-71
2024/03/17 05:30:08;;;;;;;8.90;7.20;;;5.10;92.70;;;3.84;99.77;98586.38;5060064;28;20479;-70
2024/03/17 05:32:36;;;;;;;10.37;7.00;;;5.00;92.90;;;4.07;100.00;98628.63;5064186;28;20838;-70
2024/03/17 05:35:03;;;;;;;11.63;7.20;;;4.90;93.50;;;4.25;100.00;98631.22;5060240;28;20473;-69
2024/03/17 05:37:31;;;;;;;10.40;7.67;;;5.00;93.90;;;4.41;98.78;98635.81;5059660;28;20467;-70
2024/03/17 05:39:58;;;;;;;9.47;7.20;;;5.10;93.80;;;4.48;98.22;98647.56;5059074;28;20489;-69
2024/03/17 05:42:26;;;;;;;10.90;7.17;;;5.20;93.30;;;4.52;98.16;98632.00;5062598;28;20484;-71
2024/03/17 05:44:55;;;;;;;9.43;6.97;;;5.20;93.40;;;4.12;97.70;98556.75;5062300;28;20481;-70
2024/03/17 05:47:22;;;;;;;11.17;7.50;;;5.30;92.90;;;4.38;98.39;98634.28;5061198;28;20468;-70
2024/03/17 05:49:50;;;;;;;10.60;7.87;;;5.30;92.60;;;4.19;100.00;98635.38;5061170;28;20471;-68
2024/03/17 05:52:17;;;;;;;11.00;7.70;;;5.10;93.30;;;4.09;100.00;98618.59;5061203;28;20464;-70
2024/03/17 05:54:45;;;;;;;11.10;7.30;;;5.10;94.00;;;3.89;100.00;98535.94;5058573;28;20468;-68
2024/03/17 05:57:13;;;;;;;8.33;6.90;;;5.20;94.30;;;4.51;98.40;98636.53;5057342;28;20475;-69
2024/03/17 05:59:42;;;;;;;8.83;6.80;;;5.30;93.60;;;4.61;98.56;98648.91;5057152;28;20546;-71
2024/03/17 06:02:11;;;;;;;9.63;6.90;;;5.30;93.10;;;4.70;98.29;98629.22;5075910;28;20475;-70
2024/03/17 06:04:38;;;;;;;8.13;6.20;;;5.40;93.50;;;4.69;97.44;98643.63;5060699;28;20480;-71
2024/03/17 06:07:07;;;;;;;9.73;6.30;;;5.50;92.70;;;4.59;97.66;98642.91;5074508;28;20492;-69
2024/03/17 06:09:34;;;;;;;7.23;5.67;;;5.50;91.80;;;4.44;97.92;98646.19;5060756;28;20480;-70
2024/03/17 06:12:01;;;;;;;8.27;7.10;;;5.40;91.80;;;4.47;99.07;98656.56;5077090;28;20482;-70
2024/03/17 06:14:29;;;;;;;8.53;6.97;;;5.40;92.20;;;4.54;99.65;98648.72;5076510;28;20509;-69
2024/03/17 06:16:56;;;;;;;8.47;6.40;;;5.40;92.80;;;4.28;96.58;98571.19;5063802;28;20476;-68
2024/03/17 06:19:25;;;;;;;9.17;6.83;;;5.50;92.40;;;4.66;97.11;98646.63;5045682;28;20592;-70
2024/03/17 06:21:53;;;;;;;9.40;7.20;;;5.50;91.80;;;4.87;97.25;98642.66;5054305;28;20465;-69
2024/03/17 06:24:20;;;;;;;8.00;6.60;;;5.70;92.10;;;4.89;97.24;98643.31;5058793;28;20474;-69
2024/03/17 06:26:48;;;;;;;12.77;7.53;;;5.80;91.70;;;4.71;98.12;98646.97;5077493;28;20487;-70
2024/03/17 06:29:16;;;;;;;11.03;6.73;;;5.60;91.50;;;4.77;96.18;98650.84;5062755;28;20564;-70
2024/03/17 06:31:45;;;;;;;9.10;7.40;;;5.60;91.60;;;4.74;97.00;98649.31;5062070;28;21020;-69
2024/03/17 06:34:14;;;;;;;7.63;6.30;;;5.70;91.40;;;5.00;97.00;98643.03;5053700;28;20508;-69
2024/03/17 06:36:43;;;;;;;7.67;6.70;;;5.80;91.80;;;4.83;95.94;98639.47;5062228;28;20472;-71
2024/03/17 06:39:10;;;;;;;11.97;7.97;;;5.80;91.10;;;4.99;96.84;98637.81;5061203;28;20480;-69
2024/03/17 06:41:38;;;;;;;8.43;6.50;;;5.80;91.50;;;5.28;95.18;98653.47;5060342;28;21905;-68
2024/03/17 06:44:06;;;;;;;8.17;7.20;;;6.00;91.40;;;5.41;95.62;98646.78;5063199;28;20468;-70
2024/03/17 06:46:33;;;;;;;9.90;6.97;;;6.20;91.50;;;5.49;94.79;98641.41;5060041;28;20579;-67
2024/03/17 06:49:01;;;;;;;7.97;6.50;;;6.30;90.70;;;4.93;94.35;98640.16;5060045;28;20526;-69
2024/03/17 06:51:28;;;;;;;8.93;7.23;;;6.10;89.90;;;4.85;96.66;98648.16;5058495;28;21017;-71
2024/03/17 06:53:58;;;;;;;8.40;6.57;;;5.90;90.40;;;5.29;95.71;98633.69;5056719;28;20480;-72
2024/03/17 06:56:26;;;;;;;9.53;6.90;;;6.10;90.90;;;5.09;92.68;98561.69;5071069;28;20488;-68
2024/03/17 06:58:53;;;;;;;9.37;6.97;;;6.40;90.40;;;5.66;91.99;98640.38;5061118;28;20826;-70
2024/03/17 07:01:21;;;;;;;9.83;6.20;;;6.50;89.50;;;5.68;92.43;98627.66;5056922;28;20580;-70
2024/03/17 07:03:48;;;;;;;7.57;6.77;;;6.60;89.20;;;5.72;91.42;98627.34;5061140;28;20468;-69
2024/03/17 07:06:16;;;;;;;11.00;7.20;;;6.60;88.30;;;5.98;90.60;98615.53;5055939;28;20735;-75
2024/03/17 07:08:44;;;;;;;9.30;7.27;;;6.70;88.40;;;6.00;89.13;98602.81;5063464;28;20480;-81
2024/03/17 07:11:13;;;;;;;7.80;7.03;;;6.90;87.60;;;5.96;88.04;98560.22;5065083;28;20475;-84
2024/03/17 07:13:41;;;;;;;8.77;6.83;;;7.10;87.20;;;6.40;86.93;98630.53;5065673;28;20525;-80
2024/03/17 07:16:09;;;;;;;9.73;7.60;;;7.20;86.40;;;6.48;87.16;98630.53;5062063;28;20565;-81
2024/03/17 07:18:39;;;;;;;8.07;6.90;;;7.20;86.40;;;6.66;85.78;98624.06;5067870;28;20824;-80
2024/03/17 07:21:09;;;;;;;8.80;7.13;;;7.40;85.80;;;6.87;84.97;98641.41;5065599;28;20471;-82
2024/03/17 07:23:40;;;;;;;8.13;7.20;;;7.50;85.70;;;6.47;87.21;98625.31;5064140;28;21004;-86
2024/03/17 07:26:09;;;;;;;7.63;6.37;;;7.40;85.50;;;6.02;87.24;98568.63;5062313;28;20493;-76
2024/03/17 07:28:40;;;;;;;6.90;6.23;;;7.40;85.40;;;6.56;86.12;98628.81;5058282;28;20465;-79
2024/03/17 07:31:09;;;;;;;9.40;6.13;;;7.30;85.20;;;6.73;86.26;98624.19;5054916;28;20473;-78
2024/03/17 07:33:37;;;;;;;8.40;6.40;;;7.40;85.80;;;6.77;86.20;98626.38;5059992;28;21616;-78
2024/03/17 07:36:07;;;;;;;8.83;7.40;;;7.60;85.70;;;6.12;86.22;98579.97;5043818;28;20564;-77
2024/03/17 07:38:35;;;;;;;9.00;7.70;;;7.50;84.70;;;6.78;85.81;98621.81;5058480;28;21009;-76
2024/03/17 07:41:05;;;;;;;10.70;6.90;;;7.60;85.50;;;6.95;85.14;98633.31;5054626;28;20496;-75
2024/03/17 07:43:35;;;;;;;8.13;7.00;;;7.60;85.30;;;7.30;82.96;98633.75;5059090;28;20457;-79
2024/03/17 07:46:05;;;;;;;8.40;7.10;;;7.90;84.80;;;7.47;81.84;98620.19;5057117;28;20985;-76
2024/03/17 07:48:36;;;;;;;9.30;7.17;;;8.20;84.10;;;7.59;81.42;98617.91;5056075;28;20504;-76
2024/03/17 07:51:06;;;;;;;7.40;6.60;;;8.30;83.80;;;7.40;82.28;98608.50;5050206;28;20995;-76
2024/03/17 07:53:34;;;;;;;8.70;7.33;;;8.40;83.50;;;7.51;82.02;98608.06;5049859;28;20574;-78
2024/03/17 07:56:04;;;;;;;8.80;6.67;;;8.30;83.50;;;7.01;83.32;98608.41;5075561;28;20474;-76
2024/03/17 07:58:33;;;;;;;9.20;7.53;;;8.00;83.00;;;6.92;84.12;98606.81;5057034;28;20516;-77
2024/03/17 08:01:04;;;;;;;11.00;7.97;;;7.90;83.60;;;7.01;83.17;98576.19;5059700;28;20515;-77
2024/03/17 08:03:33;;;;;;;11.13;7.60;;;7.90;83.90;;;7.37;81.74;98599.78;5057736;28;20477;-78
2024/03/17 08:06:03;;;;;;;10.60;8.30;;;8.20;83.40;;;7.79;80.97;98602.06;5059489;28;20501;-78
2024/03/17 08:08:35;;;;;;;8.60;6.87;;;8.50;83.50;;;7.88;78.62;98592.06;5059234;28;20467;-78
2024/03/17 08:11:03;;;;;;;9.20;8.17;;;8.70;82.50;;;8.16;78.43;98604.91;5059098;28;20517;-77
2024/03/17 08:13:33;;;;;;;7.83;6.57;;;8.80;82.20;;;8.39;77.76;98603.97;5058935;28;20903;-76
2024/03/17 08:16:05;;;;;;;9.17;7.30;;;9.00;82.20;;;8.33;78.33;98608.25;5057434;28;20479;-78
2024/03/17 08:18:34;;;;;;;8.60;6.60;;;9.10;82.10;;;8.31;77.33;98600.34;5060361;28;20508;-78
2024/03/17 08:21:03;;;;;;;6.93;6.23;;;9.10;81.30;;;8.21;76.50;98597.94;5058562;28;20458;-77
2024/03/17 08:23:31;;;;;;;8.17;6.70;;;9.10;80.70;;;7.88;78.55;98603.69;5060034;28;20493;-78
2024/03/17 08:26:00;;;;;;;8.30;6.77;;;8.80;81.10;;;8.00;79.27;98598.66;5064548;28;20480;-79
2024/03/17 08:28:29;;;;;;;8.20;6.90;;;8.70;81.60;;;8.14;77.46;98590.78;5062848;28;21001;-78
2024/03/17 08:30:58;;;;;;;7.07;6.30;;;8.80;81.30;;;8.17;77.25;98583.19;5060699;28;20478;-79
2024/03/17 08:33:29;;;;;;;7.77;6.50;;;8.90;81.10;;;8.49;75.90;98594.59;5058289;28;20499;-77
2024/03/17 08:35:57;;;;;;;9.50;7.77;;;9.10;80.60;;;8.30;75.81;98589.78;5059880;28;20509;-77
2024/03/17 08:38:27;;;;;;;8.83;6.90;;;9.00;80.40;;;8.53;75.44;98586.16;5061661;28;20523;-77
2024/03/17 08:40:56;;;;;;;7.03;5.97;;;9.10;80.50;;;8.40;73.85;98582.22;5064616;28;20479;-76
2024/03/17 08:43:25;;;;;;;7.53;6.07;;;9.10;79.70;;;8.04;75.60;98572.25;5064647;28;20556;-75
2024/03/17 08:45:58;;;;;;;6.77;5.80;;;8.90;79.70;;;8.19;75.27;98575.75;5058400;28;20547;-73
2024/03/17 08:48:28;;;;;;;11.03;6.50;;;8.90;80.00;;;8.33;75.63;98578.63;5074866;28;20935;-77
2024/03/17 08:50:56;;;;;;;8.37;6.30;;;9.00;80.20;;;8.57;73.98;98571.28;5059781;28;20481;-79
2024/03/17 08:53:25;;;;;;;7.90;6.57;;;9.30;79.50;;;8.75;72.53;98579.81;5066703;28;20476;-77
2024/03/17 08:55:53;;;;;;;6.97;5.70;;;9.40;78.90;;;8.64;70.22;98582.97;5053400;28;20511;-78
2024/03/17 08:58:21;;;;;;;7.10;6.07;;;9.30;77.20;;;8.69;69.93;98563.56;5074260;28;20473;-76
2024/03/17 09:00:49;;;;;;;7.70;5.77;;;9.40;77.00;;;8.93;67.31;98597.41;5056430;28;20506;-78
2024/03/17 09:03:17;;;;;;;7.17;5.43;;;9.60;75.70;;;8.83;66.25;98576.16;5057994;28;21326;-75
2024/03/17 09:05:48;;;;;;;6.57;4.53;;;9.80;74.30;;;9.16;64.48;98564.88;5077629;28;20555;-77
2024/03/17 09:08:20;;;;;;;5.97;5.20;;;9.90;73.50;;;9.24;61.92;98533.41;5062680;28;20481;-75
2024/03/17 09:10:50;;;;;;;4.80;4.30;;;10.10;70.80;;;9.73;61.39;98575.72;5058542;28;20475;-79
2024/03/17 09:13:20;;;;;;;5.13;4.60;;;10.30;70.40;;;9.58;60.67;98577.69;5060509;28;21077;-79
2024/03/17 09:15:56;;;;;;;6.90;5.33;;;10.30;69.00;;;9.62;62.61;98566.28;5063164;28;21119;-80
2024/03/17 09:18:24;;;;;;;8.67;4.80;;;10.40;69.90;;;9.87;63.40;98582.03;5079107;28;20476;-81
2024/03/17 09:21:04;;;;;;;6.60;4.63;;;10.40;70.70;;;10.18;60.22;98561.88;5060333;28;20504;-79
2024/03/17 09:23:33;;;;;;;7.47;5.20;;;10.70;70.00;;;10.01;60.90;98569.50;5056236;28;20490;-77
2024/03/17 09:26:05;;;;;;;8.70;5.80;;;10.80;68.80;;;10.20;59.99;98567.09;5072295;28;20506;-81
2024/03/17 09:28:34;;;;;;;5.83;4.67;;;10.80;68.20;;;10.18;58.69;98551.06;5076683;28;21318;-82
2024/03/17 09:31:06;;;;;;;6.50;4.77;;;11.00;67.10;;;10.62;58.35;98572.50;5063553;28;20476;-80
2024/03/17 09:33:38;;;;;;;8.20;5.00;;;11.10;67.30;;;11.20;57.21;98565.78;5045491;28;20479;-87
2024/03/17 09:36:10;;;;;;;7.83;5.20;;;11.50;67.30;;;11.37;57.07;98568.09;5045458;28;20474;-79
2024/03/17 09:38:39;;;;;;;6.30;5.67;;;11.70;67.00;;;11.58;55.34;98554.34;5064092;28;20492;-80
2024/03/17 09:41:08;;;;;;;5.13;3.67;;;12.20;65.60;;;11.13;52.05;98486.50;5062909;28;20505;-80
2024/03/17 09:43:37;;;;;;;5.20;3.80;;;12.30;62.50;;;11.15;51.87;98542.06;5060781;28;20487;-82
2024/03/17 09:46:05;;;;;;;3.63;3.17;;;12.10;60.20;;;11.43;49.96;98534.78;5065798;28;20480;-81
2024/03/17 09:48:33;;;;;;;4.00;3.60;;;12.20;59.40;;;11.52;50.26;98555.19;5068259;28;20514;-80
2024/03/17 09:51:03;;;;;;;5.63;3.40;;;12.20;59.10;;;11.68;49.52;98553.09;5071330;28;20489;-82
2024/03/17 09:53:41;;;;;;;4.30;3.90;;;12.40;58.40;;;11.63;50.29;98551.00;5070153;28;20514;-82
2024/03/17 09:56:13;;;;;;;4.37;3.97;;;12.50;58.70;;;11.58;51.11;98537.28;5063684;28;20474;-82
2024/03/17 09:58:41;;;;;;;5.97;4.17;;;12.50;58.80;;;12.40;49.61;98533.38;5078433;28;20478;-82
2024/03/17 10:01:10;;;;;;;5.23;4.40;;;12.90;58.70;;;12.21;49.49;98535.09;5062975;28;21043;-82
2024/03/17 10:03:45;;;;;;;4.70;4.30;;;12.90;58.20;;;11.89;50.18;98533.91;5061383;28;20550;-80
2024/03/17 10:06:14;;;;;;;4.53;4.07;;;12.60;58.30;;;11.85;50.05;98537.25;5059595;28;20469;-81
2024/03/17 10:08:49;;;;;;;4.70;3.50;;;12.50;58.20;;;11.98;50.11;98534.53;5055850;28;20480;-83
2024/03/17 10:11:19;;;;;;;4.13;3.47;;;12.40;58.10;;;11.57;50.58;98536.44;5077970;28;20943;-82
2024/03/17 10:13:59;;;;;;;5.17;4.00;;;12.30;57.70;;;11.96;50.17;98543.91;5072259;28;20482;-80
2024/03/17 10:16:29;;;;;;;4.50;4.07;;;12.50;58.40;;;11.70;49.60;98497.72;5064423;28;20580;-80
2024/03/17 10:19:10;;;;;;;6.30;4.27;;;12.60;57.70;;;12.04;49.29;98546.41;5065273;28;20494;-78
2024/03/17 10:21:39;;;;;;;8.10;4.40;;;12.60;57.30;;;12.21;49.55;98541.38;5084407;28;20487;-81
2024/03/17 10:24:12;;;;;;;4.70;4.23;;;12.80;57.50;;;11.16;50.36;98486.94;5078509;28;20464;-81
2024/03/17 10:26:46;;;;;;;5.77;4.67;;;12.50;57.10;;;11.41;50.91;98536.88;5063976;28;20498;-83
2024/03/17 10:29:35;;;;;;;5.33;4.70;;;12.20;57.40;;;11.69;50.72;98514.16;5064697;28;20982;-85
2024/03/17 10:32:06;;;;;;;6.13;4.33;;;12.30;57.90;;;12.17;49.93;98530.13;5080504;28;20501;-83
2024/03/17 10:34:35;;;;;;;4.87;4.43;;;12.60;57.60;;;11.98;48.96;98466.84;5062569;28;20478;-83
2024/03/17 10:37:11;;;;;;;5.60;4.37;;;12.80;57.20;;;12.68;48.19;98511.38;5063717;28;20475;-76
2024/03/17 10:39:41;;;;;;;4.97;4.47;;;13.10;57.00;;;12.83;47.86;98521.91;5061283;28;20526;-78